sensor_id;sensor_type;location;lat;lon;timestamp;P1;durP1;ratioP1;P2;durP2;ratioP2
6689;SDS011;3382;51.576;8.076;2023-03-02T00:00:11;12.93;;;9.17;;
6689;SDS011;3382;51.576;8.076;2023-03-02T00:02:40;15.93;;;8.80;;
6689;SDS011;3382;51.576;8.076;2023-03-02T00:05:06;12.00;;;7.97;;
6689;SDS011;3382;51.576;8.076;2023-03-02T00:07:34;12.37;;;8.63;;
6689;SDS011;3382;51.576;8.076;2023-03-02T00:10:01;12.17;;;7.60;;
6689;SDS011;3382;51.576;8.076;2023-03-02T00:12:27;12.20;;;7.83;;
6689;SDS011;3382;51.576;8.076;2023-03-02T00:14:56;10.87;;;8.23;;
6689;SDS011;3382;51.576;8.076;2023-03-02T00:17:21;14.87;;;7.70;;
6689;SDS011;3382;51.576;8.076;2023-03-02T00:19:51;11.53;;;8.20;;
6689;SDS011;3382;51.576;8.076;2023-03-02T00:22:18;10.97;;;7.80;;
6689;SDS011;3382;51.576;8.076;2023-03-02T00:24:43;9.23;;;7.20;;
6689;SDS011;3382;51.576;8.076;2023-03-02T00:27:09;11.83;;;7.70;;
6689;SDS011;3382;51.576;8.076;2023-03-02T00:29:35;10.87;;;7.07;;
6689;SDS011;3382;51.576;8.076;2023-03-02T00:32:00;15.10;;;8.80;;
6689;SDS011;3382;51.576;8.076;2023-03-02T00:34:28;10.50;;;7.53;;
6689;SDS011;3382;51.576;8.076;2023-03-02T00:36:56;10.40;;;7.53;;
6689;SDS011;3382;51.576;8.076;2023-03-02T00:39:22;11.80;;;7.77;;
6689;SDS011;3382;51.576;8.076;2023-03-02T00:41:48;10.83;;;7.60;;
6689;SDS011;3382;51.576;8.076;2023-03-02T00:44:15;8.63;;;6.73;;
6689;SDS011;3382;51.576;8.076;2023-03-02T00:46:44;8.60;;;6.80;;
6689;SDS011;3382;51.576;8.076;2023-03-02T00:49:10;10.77;;;7.70;;
6689;SDS011;3382;51.576;8.076;2023-03-02T00:51:36;11.70;;;7.37;;
6689;SDS011;3382;51.576;8.076;2023-03-02T00:54:01;10.50;;;7.63;;
6689;SDS011;3382;51.576;8.076;2023-03-02T00:56:28;11.07;;;7.33;;
6689;SDS011;3382;51.576;8.076;2023-03-02T00:58:54;9.77;;;7.83;;
6689;SDS011;3382;51.576;8.076;2023-03-02T01:01:19;11.93;;;7.70;;
6689;SDS011;3382;51.576;8.076;2023-03-02T01:03:45;10.43;;;7.23;;
6689;SDS011;3382;51.576;8.076;2023-03-02T01:06:15;9.20;;;7.43;;
6689;SDS011;3382;51.576;8.076;2023-03-02T01:08:43;12.27;;;8.23;;
6689;SDS011;3382;51.576;8.076;2023-03-02T01:11:13;8.97;;;7.07;;
6689;SDS011;3382;51.576;8.076;2023-03-02T01:13:40;10.10;;;7.87;;
6689;SDS011;3382;51.576;8.076;2023-03-02T01:16:06;11.47;;;7.13;;
6689;SDS011;3382;51.576;8.076;2023-03-02T01:18:32;10.23;;;7.43;;
6689;SDS011;3382;51.576;8.076;2023-03-02T01:21:02;12.63;;;7.03;;
6689;SDS011;3382;51.576;8.076;2023-03-02T01:23:29;12.43;;;7.57;;
6689;SDS011;3382;51.576;8.076;2023-03-02T01:25:55;11.70;;;7.50;;
6689;SDS011;3382;51.576;8.076;2023-03-02T01:28:21;11.07;;;7.23;;
6689;SDS011;3382;51.576;8.076;2023-03-02T01:30:46;9.47;;;7.57;;
6689;SDS011;3382;51.576;8.076;2023-03-02T01:33:12;11.27;;;7.33;;
6689;SDS011;3382;51.576;8.076;2023-03-02T01:35:38;10.10;;;7.53;;
6689;SDS011;3382;51.576;8.076;2023-03-02T01:38:04;9.87;;;6.97;;
6689;SDS011;3382;51.576;8.076;2023-03-02T01:40:29;9.10;;;7.13;;
6689;SDS011;3382;51.576;8.076;2023-03-02T01:42:57;9.07;;;7.20;;
6689;SDS011;3382;51.576;8.076;2023-03-02T01:48:17;9.83;;;6.53;;
6689;SDS011;3382;51.576;8.076;2023-03-02T01:50:57;8.40;;;6.37;;
6689;SDS011;3382;51.576;8.076;2023-03-02T01:53:25;8.23;;;6.10;;
6689;SDS011;3382;51.576;8.076;2023-03-02T01:55:52;8.73;;;6.30;;
6689;SDS011;3382;51.576;8.076;2023-03-02T01:58:18;8.27;;;5.67;;
6689;SDS011;3382;51.576;8.076;2023-03-02T02:00:45;9.67;;;6.47;;
6689;SDS011;3382;51.576;8.076;2023-03-02T02:03:16;8.23;;;6.60;;
6689;SDS011;3382;51.576;8.076;2023-03-02T02:05:47;10.17;;;6.50;;
6689;SDS011;3382;51.576;8.076;2023-03-02T02:08:22;11.13;;;6.70;;
6689;SDS011;3382;51.576;8.076;2023-03-02T02:10:48;10.27;;;6.57;;
6689;SDS011;3382;51.576;8.076;2023-03-02T02:13:14;8.57;;;5.97;;
6689;SDS011;3382;51.576;8.076;2023-03-02T02:15:40;9.07;;;6.30;;
6689;SDS011;3382;51.576;8.076;2023-03-02T02:18:06;9.10;;;6.33;;
6689;SDS011;3382;51.576;8.076;2023-03-02T02:23:11;9.10;;;6.37;;
6689;SDS011;3382;51.576;8.076;2023-03-02T02:28:35;7.87;;;6.20;;
6689;SDS011;3382;51.576;8.076;2023-03-02T02:33:42;7.93;;;6.33;;
6689;SDS011;3382;51.576;8.076;2023-03-02T02:36:14;10.80;;;6.97;;
6689;SDS011;3382;51.576;8.076;2023-03-02T02:38:46;11.23;;;7.30;;
6689;SDS011;3382;51.576;8.076;2023-03-02T02:41:18;7.90;;;6.40;;
6689;SDS011;3382;51.576;8.076;2023-03-02T02:43:46;9.13;;;6.40;;
6689;SDS011;3382;51.576;8.076;2023-03-02T02:46:12;9.43;;;6.80;;
6689;SDS011;3382;51.576;8.076;2023-03-02T02:48:38;11.67;;;6.90;;
6689;SDS011;3382;51.576;8.076;2023-03-02T02:51:04;9.60;;;7.33;;
6689;SDS011;3382;51.576;8.076;2023-03-02T02:53:43;10.10;;;7.30;;
6689;SDS011;3382;51.576;8.076;2023-03-02T02:56:14;9.83;;;7.37;;
6689;SDS011;3382;51.576;8.076;2023-03-02T02:58:42;10.07;;;7.43;;
6689;SDS011;3382;51.576;8.076;2023-03-02T03:01:17;11.30;;;6.93;;
6689;SDS011;3382;51.576;8.076;2023-03-02T03:03:50;7.93;;;7.10;;
6689;SDS011;3382;51.576;8.076;2023-03-02T03:06:21;10.47;;;6.60;;
6689;SDS011;3382;51.576;8.076;2023-03-02T03:08:54;8.67;;;6.77;;
6689;SDS011;3382;51.576;8.076;2023-03-02T03:11:25;11.27;;;7.57;;
6689;SDS011;3382;51.576;8.076;2023-03-02T03:13:57;10.73;;;7.60;;
6689;SDS011;3382;51.576;8.076;2023-03-02T03:16:36;13.27;;;7.33;;
6689;SDS011;3382;51.576;8.076;2023-03-02T03:19:25;9.23;;;6.80;;
6689;SDS011;3382;51.576;8.076;2023-03-02T03:21:51;11.37;;;8.27;;
6689;SDS011;3382;51.576;8.076;2023-03-02T03:24:19;9.53;;;6.93;;
6689;SDS011;3382;51.576;8.076;2023-03-02T03:26:46;13.07;;;7.37;;
6689;SDS011;3382;51.576;8.076;2023-03-02T03:29:12;11.57;;;7.10;;
6689;SDS011;3382;51.576;8.076;2023-03-02T03:31:39;10.23;;;7.17;;
6689;SDS011;3382;51.576;8.076;2023-03-02T03:34:05;8.90;;;7.40;;
6689;SDS011;3382;51.576;8.076;2023-03-02T03:36:31;10.57;;;7.43;;
6689;SDS011;3382;51.576;8.076;2023-03-02T03:38:57;10.87;;;7.00;;
6689;SDS011;3382;51.576;8.076;2023-03-02T03:41:23;9.73;;;7.53;;
6689;SDS011;3382;51.576;8.076;2023-03-02T03:43:49;9.43;;;6.83;;
6689;SDS011;3382;51.576;8.076;2023-03-02T03:46:15;10.53;;;7.43;;
6689;SDS011;3382;51.576;8.076;2023-03-02T03:48:41;9.27;;;6.80;;
6689;SDS011;3382;51.576;8.076;2023-03-02T03:51:07;8.93;;;6.63;;
6689;SDS011;3382;51.576;8.076;2023-03-02T03:53:33;13.13;;;8.00;;
6689;SDS011;3382;51.576;8.076;2023-03-02T03:55:58;8.10;;;6.60;;
6689;SDS011;3382;51.576;8.076;2023-03-02T03:58:25;9.27;;;6.83;;
6689;SDS011;3382;51.576;8.076;2023-03-02T04:00:51;11.33;;;7.23;;
6689;SDS011;3382;51.576;8.076;2023-03-02T04:03:17;8.20;;;6.90;;
6689;SDS011;3382;51.576;8.076;2023-03-02T04:05:44;8.17;;;6.50;;
6689;SDS011;3382;51.576;8.076;2023-03-02T04:08:10;8.60;;;7.10;;
6689;SDS011;3382;51.576;8.076;2023-03-02T04:10:36;8.37;;;6.83;;
6689;SDS011;3382;51.576;8.076;2023-03-02T04:13:02;9.40;;;6.87;;
6689;SDS011;3382;51.576;8.076;2023-03-02T04:15:27;11.13;;;7.10;;
6689;SDS011;3382;51.576;8.076;2023-03-02T04:17:53;9.80;;;6.70;;
6689;SDS011;3382;51.576;8.076;2023-03-02T04:20:19;9.43;;;6.47;;
6689;SDS011;3382;51.576;8.076;2023-03-02T04:22:47;8.37;;;6.57;;
6689;SDS011;3382;51.576;8.076;2023-03-02T04:25:15;13.90;;;7.20;;
6689;SDS011;3382;51.576;8.076;2023-03-02T04:27:43;11.40;;;6.93;;
6689;SDS011;3382;51.576;8.076;2023-03-02T04:30:10;10.00;;;7.00;;
6689;SDS011;3382;51.576;8.076;2023-03-02T04:32:36;12.70;;;7.07;;
6689;SDS011;3382;51.576;8.076;2023-03-02T04:35:02;11.67;;;7.00;;
6689;SDS011;3382;51.576;8.076;2023-03-02T04:37:28;9.90;;;6.77;;
6689;SDS011;3382;51.576;8.076;2023-03-02T04:39:55;11.10;;;6.03;;
6689;SDS011;3382;51.576;8.076;2023-03-02T04:42:20;9.70;;;6.67;;
6689;SDS011;3382;51.576;8.076;2023-03-02T04:44:47;10.73;;;6.73;;
6689;SDS011;3382;51.576;8.076;2023-03-02T04:47:13;7.93;;;6.07;;
6689;SDS011;3382;51.576;8.076;2023-03-02T04:49:39;11.97;;;6.73;;
6689;SDS011;3382;51.576;8.076;2023-03-02T04:52:05;11.30;;;7.00;;
6689;SDS011;3382;51.576;8.076;2023-03-02T04:54:30;9.90;;;7.00;;
6689;SDS011;3382;51.576;8.076;2023-03-02T04:56:57;10.77;;;6.50;;
6689;SDS011;3382;51.576;8.076;2023-03-02T04:59:24;8.37;;;6.73;;
6689;SDS011;3382;51.576;8.076;2023-03-02T05:01:53;9.83;;;6.77;;
6689;SDS011;3382;51.576;8.076;2023-03-02T05:04:20;9.40;;;6.40;;
6689;SDS011;3382;51.576;8.076;2023-03-02T05:06:46;12.97;;;6.97;;
6689;SDS011;3382;51.576;8.076;2023-03-02T05:09:11;10.27;;;7.03;;
6689;SDS011;3382;51.576;8.076;2023-03-02T05:11:37;8.73;;;7.07;;
6689;SDS011;3382;51.576;8.076;2023-03-02T05:14:05;11.90;;;7.17;;
6689;SDS011;3382;51.576;8.076;2023-03-02T05:16:32;13.47;;;7.40;;
6689;SDS011;3382;51.576;8.076;2023-03-02T05:19:00;11.23;;;7.63;;
6689;SDS011;3382;51.576;8.076;2023-03-02T05:21:27;9.27;;;6.93;;
6689;SDS011;3382;51.576;8.076;2023-03-02T05:23:53;11.93;;;7.33;;
6689;SDS011;3382;51.576;8.076;2023-03-02T05:26:19;10.10;;;7.37;;
6689;SDS011;3382;51.576;8.076;2023-03-02T05:28:44;17.33;;;7.17;;
6689;SDS011;3382;51.576;8.076;2023-03-02T05:31:20;10.10;;;6.73;;
6689;SDS011;3382;51.576;8.076;2023-03-02T05:33:59;12.93;;;6.93;;
6689;SDS011;3382;51.576;8.076;2023-03-02T05:36:25;16.80;;;7.30;;
6689;SDS011;3382;51.576;8.076;2023-03-02T05:38:50;10.20;;;6.97;;
6689;SDS011;3382;51.576;8.076;2023-03-02T05:41:16;11.23;;;6.83;;
6689;SDS011;3382;51.576;8.076;2023-03-02T05:43:42;11.10;;;7.13;;
6689;SDS011;3382;51.576;8.076;2023-03-02T05:46:08;9.60;;;6.87;;
6689;SDS011;3382;51.576;8.076;2023-03-02T05:48:33;8.50;;;6.83;;
6689;SDS011;3382;51.576;8.076;2023-03-02T05:50:59;9.90;;;7.03;;
6689;SDS011;3382;51.576;8.076;2023-03-02T05:53:25;11.00;;;6.93;;
6689;SDS011;3382;51.576;8.076;2023-03-02T05:55:50;10.90;;;6.90;;
6689;SDS011;3382;51.576;8.076;2023-03-02T05:58:17;9.70;;;7.20;;
6689;SDS011;3382;51.576;8.076;2023-03-02T06:00:43;8.77;;;6.83;;
6689;SDS011;3382;51.576;8.076;2023-03-02T06:03:09;11.07;;;6.80;;
6689;SDS011;3382;51.576;8.076;2023-03-02T06:05:35;13.60;;;7.60;;
6689;SDS011;3382;51.576;8.076;2023-03-02T06:08:01;13.87;;;7.63;;
6689;SDS011;3382;51.576;8.076;2023-03-02T06:10:27;13.70;;;7.40;;
6689;SDS011;3382;51.576;8.076;2023-03-02T06:12:54;11.73;;;7.13;;
6689;SDS011;3382;51.576;8.076;2023-03-02T06:15:20;13.10;;;7.70;;
6689;SDS011;3382;51.576;8.076;2023-03-02T06:17:45;12.17;;;7.57;;
6689;SDS011;3382;51.576;8.076;2023-03-02T06:20:12;12.90;;;7.50;;
6689;SDS011;3382;51.576;8.076;2023-03-02T06:22:39;15.80;;;8.50;;
6689;SDS011;3382;51.576;8.076;2023-03-02T06:25:08;15.97;;;8.30;;
6689;SDS011;3382;51.576;8.076;2023-03-02T06:27:36;10.57;;;7.50;;
6689;SDS011;3382;51.576;8.076;2023-03-02T06:30:02;13.33;;;6.03;;
6689;SDS011;3382;51.576;8.076;2023-03-02T06:32:28;12.87;;;7.27;;
6689;SDS011;3382;51.576;8.076;2023-03-02T06:34:58;13.60;;;7.43;;
6689;SDS011;3382;51.576;8.076;2023-03-02T06:37:24;9.50;;;6.93;;
6689;SDS011;3382;51.576;8.076;2023-03-02T06:39:52;11.87;;;7.03;;
6689;SDS011;3382;51.576;8.076;2023-03-02T06:42:22;10.97;;;7.07;;
6689;SDS011;3382;51.576;8.076;2023-03-02T06:44:48;10.50;;;3.33;;
6689;SDS011;3382;51.576;8.076;2023-03-02T06:47:15;14.53;;;8.37;;
6689;SDS011;3382;51.576;8.076;2023-03-02T06:49:41;12.00;;;7.30;;
6689;SDS011;3382;51.576;8.076;2023-03-02T06:52:06;9.83;;;7.33;;
6689;SDS011;3382;51.576;8.076;2023-03-02T06:54:32;13.37;;;6.90;;
6689;SDS011;3382;51.576;8.076;2023-03-02T06:56:58;9.50;;;6.90;;
6689;SDS011;3382;51.576;8.076;2023-03-02T06:59:23;11.70;;;7.43;;
6689;SDS011;3382;51.576;8.076;2023-03-02T07:01:49;11.10;;;7.20;;
6689;SDS011;3382;51.576;8.076;2023-03-02T07:04:15;10.77;;;7.10;;
6689;SDS011;3382;51.576;8.076;2023-03-02T07:06:41;7.70;;;6.23;;
6689;SDS011;3382;51.576;8.076;2023-03-02T07:09:07;8.30;;;6.47;;
6689;SDS011;3382;51.576;8.076;2023-03-02T07:11:33;8.67;;;6.20;;
6689;SDS011;3382;51.576;8.076;2023-03-02T07:13:59;12.20;;;7.00;;
6689;SDS011;3382;51.576;8.076;2023-03-02T07:16:25;8.60;;;6.43;;
6689;SDS011;3382;51.576;8.076;2023-03-02T07:18:51;9.87;;;7.20;;
6689;SDS011;3382;51.576;8.076;2023-03-02T07:21:17;8.43;;;6.70;;
6689;SDS011;3382;51.576;8.076;2023-03-02T07:23:42;9.87;;;6.90;;
6689;SDS011;3382;51.576;8.076;2023-03-02T07:26:08;10.90;;;5.77;;
6689;SDS011;3382;51.576;8.076;2023-03-02T07:28:37;7.60;;;6.17;;
6689;SDS011;3382;51.576;8.076;2023-03-02T07:31:05;10.67;;;6.20;;
6689;SDS011;3382;51.576;8.076;2023-03-02T07:33:32;7.07;;;5.50;;
6689;SDS011;3382;51.576;8.076;2023-03-02T07:35:58;9.77;;;6.10;;
6689;SDS011;3382;51.576;8.076;2023-03-02T07:38:23;9.50;;;5.80;;
6689;SDS011;3382;51.576;8.076;2023-03-02T07:40:49;9.47;;;5.83;;
6689;SDS011;3382;51.576;8.076;2023-03-02T07:43:15;6.63;;;5.83;;
6689;SDS011;3382;51.576;8.076;2023-03-02T07:45:41;13.30;;;5.50;;
6689;SDS011;3382;51.576;8.076;2023-03-02T07:48:06;10.23;;;5.90;;
6689;SDS011;3382;51.576;8.076;2023-03-02T07:50:32;8.47;;;5.40;;
6689;SDS011;3382;51.576;8.076;2023-03-02T07:52:58;8.53;;;6.17;;
6689;SDS011;3382;51.576;8.076;2023-03-02T07:55:24;11.13;;;6.23;;
6689;SDS011;3382;51.576;8.076;2023-03-02T07:57:49;13.37;;;5.63;;
6689;SDS011;3382;51.576;8.076;2023-03-02T08:00:15;8.30;;;5.83;;
6689;SDS011;3382;51.576;8.076;2023-03-02T08:02:41;8.03;;;5.70;;
6689;SDS011;3382;51.576;8.076;2023-03-02T08:05:08;7.07;;;5.77;;
6689;SDS011;3382;51.576;8.076;2023-03-02T08:07:35;6.60;;;5.40;;
6689;SDS011;3382;51.576;8.076;2023-03-02T08:10:00;9.00;;;6.37;;
6689;SDS011;3382;51.576;8.076;2023-03-02T08:12:26;8.93;;;5.60;;
6689;SDS011;3382;51.576;8.076;2023-03-02T08:14:52;11.27;;;6.67;;
6689;SDS011;3382;51.576;8.076;2023-03-02T08:17:18;8.83;;;5.37;;
6689;SDS011;3382;51.576;8.076;2023-03-02T08:19:43;7.97;;;5.77;;
6689;SDS011;3382;51.576;8.076;2023-03-02T08:22:09;9.40;;;5.93;;
6689;SDS011;3382;51.576;8.076;2023-03-02T08:24:36;9.70;;;5.90;;
6689;SDS011;3382;51.576;8.076;2023-03-02T08:27:02;7.47;;;5.57;;
6689;SDS011;3382;51.576;8.076;2023-03-02T08:29:28;8.13;;;5.77;;
6689;SDS011;3382;51.576;8.076;2023-03-02T08:31:54;9.57;;;5.70;;
6689;SDS011;3382;51.576;8.076;2023-03-02T08:34:19;8.27;;;5.27;;
6689;SDS011;3382;51.576;8.076;2023-03-02T08:36:45;6.40;;;5.70;;
6689;SDS011;3382;51.576;8.076;2023-03-02T08:39:11;12.90;;;5.87;;
6689;SDS011;3382;51.576;8.076;2023-03-02T08:41:36;17.10;;;6.30;;
6689;SDS011;3382;51.576;8.076;2023-03-02T08:44:02;11.93;;;5.53;;
6689;SDS011;3382;51.576;8.076;2023-03-02T08:46:28;10.37;;;5.93;;
6689;SDS011;3382;51.576;8.076;2023-03-02T08:48:55;10.13;;;6.00;;
6689;SDS011;3382;51.576;8.076;2023-03-02T08:51:22;9.40;;;5.40;;
6689;SDS011;3382;51.576;8.076;2023-03-02T08:53:49;8.33;;;5.83;;
6689;SDS011;3382;51.576;8.076;2023-03-02T08:58:53;8.07;;;5.80;;
6689;SDS011;3382;51.576;8.076;2023-03-02T09:01:22;7.73;;;5.97;;
6689;SDS011;3382;51.576;8.076;2023-03-02T09:03:55;9.40;;;5.67;;
6689;SDS011;3382;51.576;8.076;2023-03-02T09:06:23;6.17;;;5.13;;
6689;SDS011;3382;51.576;8.076;2023-03-02T09:08:49;10.63;;;6.13;;
6689;SDS011;3382;51.576;8.076;2023-03-02T09:11:15;10.30;;;5.57;;
6689;SDS011;3382;51.576;8.076;2023-03-02T09:13:41;7.03;;;5.47;;
6689;SDS011;3382;51.576;8.076;2023-03-02T09:16:07;8.03;;;5.93;;
6689;SDS011;3382;51.576;8.076;2023-03-02T09:18:34;7.57;;;5.17;;
6689;SDS011;3382;51.576;8.076;2023-03-02T09:21:00;7.23;;;5.80;;
6689;SDS011;3382;51.576;8.076;2023-03-02T09:23:26;8.00;;;5.70;;
6689;SDS011;3382;51.576;8.076;2023-03-02T09:25:52;9.00;;;5.80;;
6689;SDS011;3382;51.576;8.076;2023-03-02T09:28:18;7.60;;;5.27;;
6689;SDS011;3382;51.576;8.076;2023-03-02T09:30:49;7.43;;;5.30;;
6689;SDS011;3382;51.576;8.076;2023-03-02T09:33:16;9.03;;;6.43;;
6689;SDS011;3382;51.576;8.076;2023-03-02T09:35:41;8.57;;;5.50;;
6689;SDS011;3382;51.576;8.076;2023-03-02T09:38:07;7.20;;;5.73;;
6689;SDS011;3382;51.576;8.076;2023-03-02T09:40:36;7.50;;;5.53;;
6689;SDS011;3382;51.576;8.076;2023-03-02T09:45:57;6.17;;;5.50;;
6689;SDS011;3382;51.576;8.076;2023-03-02T09:51:44;7.43;;;5.63;;
6689;SDS011;3382;51.576;8.076;2023-03-02T09:54:15;6.73;;;5.20;;
6689;SDS011;3382;51.576;8.076;2023-03-02T09:56:48;8.67;;;5.37;;
6689;SDS011;3382;51.576;8.076;2023-03-02T10:01:46;8.67;;;5.10;;
6689;SDS011;3382;51.576;8.076;2023-03-02T10:04:17;8.43;;;5.63;;
6689;SDS011;3382;51.576;8.076;2023-03-02T10:09:37;8.73;;;5.60;;
6689;SDS011;3382;51.576;8.076;2023-03-02T10:14:43;6.63;;;5.07;;
6689;SDS011;3382;51.576;8.076;2023-03-02T10:20:31;7.30;;;5.33;;
6689;SDS011;3382;51.576;8.076;2023-03-02T10:28:43;6.67;;;5.20;;
6689;SDS011;3382;51.576;8.076;2023-03-02T10:31:40;8.43;;;4.80;;
6689;SDS011;3382;51.576;8.076;2023-03-02T10:34:08;9.43;;;4.90;;
6689;SDS011;3382;51.576;8.076;2023-03-02T10:36:39;6.83;;;4.40;;
6689;SDS011;3382;51.576;8.076;2023-03-02T10:39:13;8.27;;;5.23;;
6689;SDS011;3382;51.576;8.076;2023-03-02T10:41:44;9.23;;;4.87;;
6689;SDS011;3382;51.576;8.076;2023-03-02T10:46:47;7.47;;;4.90;;
6689;SDS011;3382;51.576;8.076;2023-03-02T10:52:01;5.90;;;4.70;;
6689;SDS011;3382;51.576;8.076;2023-03-02T10:54:30;6.60;;;4.77;;
6689;SDS011;3382;51.576;8.076;2023-03-02T10:57:02;7.13;;;5.10;;
6689;SDS011;3382;51.576;8.076;2023-03-02T10:59:33;6.83;;;4.70;;
6689;SDS011;3382;51.576;8.076;2023-03-02T11:04:47;5.60;;;4.47;;
6689;SDS011;3382;51.576;8.076;2023-03-02T11:07:19;4.43;;;3.97;;
6689;SDS011;3382;51.576;8.076;2023-03-02T11:12:24;6.00;;;3.90;;
6689;SDS011;3382;51.576;8.076;2023-03-02T11:14:59;7.80;;;4.23;;
6689;SDS011;3382;51.576;8.076;2023-03-02T11:17:33;4.90;;;4.17;;
6689;SDS011;3382;51.576;8.076;2023-03-02T11:20:02;5.87;;;4.67;;
6689;SDS011;3382;51.576;8.076;2023-03-02T11:25:04;6.10;;;4.30;;
6689;SDS011;3382;51.576;8.076;2023-03-02T11:27:35;7.00;;;4.13;;
6689;SDS011;3382;51.576;8.076;2023-03-02T11:30:12;7.83;;;3.90;;
6689;SDS011;3382;51.576;8.076;2023-03-02T11:35:14;6.17;;;4.50;;
6689;SDS011;3382;51.576;8.076;2023-03-02T11:38:20;4.70;;;4.07;;
6689;SDS011;3382;51.576;8.076;2023-03-02T11:40:45;5.63;;;4.20;;
6689;SDS011;3382;51.576;8.076;2023-03-02T11:43:15;5.90;;;4.33;;
6689;SDS011;3382;51.576;8.076;2023-03-02T11:45:47;7.27;;;4.60;;
6689;SDS011;3382;51.576;8.076;2023-03-02T11:48:21;5.07;;;4.23;;
6689;SDS011;3382;51.576;8.076;2023-03-02T11:53:18;7.17;;;4.27;;
6689;SDS011;3382;51.576;8.076;2023-03-02T11:55:46;4.97;;;3.57;;
6689;SDS011;3382;51.576;8.076;2023-03-02T11:58:16;4.77;;;3.93;;
6689;SDS011;3382;51.576;8.076;2023-03-02T12:00:44;4.47;;;3.70;;
6689;SDS011;3382;51.576;8.076;2023-03-02T12:05:57;4.00;;;3.57;;
6689;SDS011;3382;51.576;8.076;2023-03-02T12:13:37;5.93;;;3.80;;
6689;SDS011;3382;51.576;8.076;2023-03-02T12:16:49;4.00;;;3.53;;
6689;SDS011;3382;51.576;8.076;2023-03-02T12:21:58;4.30;;;3.23;;
6689;SDS011;3382;51.576;8.076;2023-03-02T12:24:30;5.27;;;3.90;;
6689;SDS011;3382;51.576;8.076;2023-03-02T12:34:52;5.30;;;3.67;;
6689;SDS011;3382;51.576;8.076;2023-03-02T12:37:25;6.63;;;3.90;;
6689;SDS011;3382;51.576;8.076;2023-03-02T12:48:00;4.50;;;3.77;;
6689;SDS011;3382;51.576;8.076;2023-03-02T12:50:30;8.90;;;4.03;;
6689;SDS011;3382;51.576;8.076;2023-03-02T12:53:02;5.43;;;4.10;;
6689;SDS011;3382;51.576;8.076;2023-03-02T12:55:30;5.63;;;3.67;;
6689;SDS011;3382;51.576;8.076;2023-03-02T12:58:00;4.90;;;3.57;;
6689;SDS011;3382;51.576;8.076;2023-03-02T13:00:30;6.40;;;3.83;;
6689;SDS011;3382;51.576;8.076;2023-03-02T13:02:58;4.97;;;3.63;;
6689;SDS011;3382;51.576;8.076;2023-03-02T13:08:00;5.43;;;3.93;;
6689;SDS011;3382;51.576;8.076;2023-03-02T13:10:35;7.27;;;3.67;;
6689;SDS011;3382;51.576;8.076;2023-03-02T13:18:16;4.07;;;3.53;;
6689;SDS011;3382;51.576;8.076;2023-03-02T13:20:42;7.47;;;4.80;;
6689;SDS011;3382;51.576;8.076;2023-03-02T13:23:14;4.77;;;3.37;;
6689;SDS011;3382;51.576;8.076;2023-03-02T13:25:54;4.00;;;3.60;;
6689;SDS011;3382;51.576;8.076;2023-03-02T13:28:25;5.43;;;3.23;;
6689;SDS011;3382;51.576;8.076;2023-03-02T13:31:05;4.40;;;3.40;;
6689;SDS011;3382;51.576;8.076;2023-03-02T13:33:42;6.23;;;3.73;;
6689;SDS011;3382;51.576;8.076;2023-03-02T13:36:16;4.13;;;3.43;;
6689;SDS011;3382;51.576;8.076;2023-03-02T13:38:44;5.03;;;3.50;;
6689;SDS011;3382;51.576;8.076;2023-03-02T13:41:22;8.23;;;4.10;;
6689;SDS011;3382;51.576;8.076;2023-03-02T13:43:49;3.77;;;3.30;;
6689;SDS011;3382;51.576;8.076;2023-03-02T13:48:40;5.80;;;3.87;;
6689;SDS011;3382;51.576;8.076;2023-03-02T13:51:17;3.87;;;3.47;;
6689;SDS011;3382;51.576;8.076;2023-03-02T13:53:53;4.20;;;3.50;;
6689;SDS011;3382;51.576;8.076;2023-03-02T13:56:28;6.57;;;3.67;;
6689;SDS011;3382;51.576;8.076;2023-03-02T13:58:59;4.17;;;3.53;;
6689;SDS011;3382;51.576;8.076;2023-03-02T14:01:26;6.30;;;3.20;;
6689;SDS011;3382;51.576;8.076;2023-03-02T14:03:52;5.80;;;3.73;;
6689;SDS011;3382;51.576;8.076;2023-03-02T14:06:18;5.37;;;4.00;;
6689;SDS011;3382;51.576;8.076;2023-03-02T14:08:44;4.80;;;3.50;;
6689;SDS011;3382;51.576;8.076;2023-03-02T14:11:10;5.43;;;3.57;;
6689;SDS011;3382;51.576;8.076;2023-03-02T14:13:42;6.03;;;3.60;;
6689;SDS011;3382;51.576;8.076;2023-03-02T14:16:09;6.00;;;3.57;;
6689;SDS011;3382;51.576;8.076;2023-03-02T14:18:44;6.47;;;3.83;;
6689;SDS011;3382;51.576;8.076;2023-03-02T14:21:18;5.70;;;3.70;;
6689;SDS011;3382;51.576;8.076;2023-03-02T14:23:46;5.40;;;4.20;;
6689;SDS011;3382;51.576;8.076;2023-03-02T14:28:53;5.17;;;3.83;;
6689;SDS011;3382;51.576;8.076;2023-03-02T14:31:19;6.27;;;3.93;;
6689;SDS011;3382;51.576;8.076;2023-03-02T14:33:47;5.90;;;3.67;;
6689;SDS011;3382;51.576;8.076;2023-03-02T14:36:14;5.40;;;4.40;;
6689;SDS011;3382;51.576;8.076;2023-03-02T14:38:44;5.77;;;3.67;;
6689;SDS011;3382;51.576;8.076;2023-03-02T14:41:14;5.20;;;3.73;;
6689;SDS011;3382;51.576;8.076;2023-03-02T14:43:45;4.97;;;3.77;;
6689;SDS011;3382;51.576;8.076;2023-03-02T14:46:10;3.70;;;3.40;;
6689;SDS011;3382;51.576;8.076;2023-03-02T14:48:36;5.90;;;4.03;;
6689;SDS011;3382;51.576;8.076;2023-03-02T14:51:02;4.93;;;3.40;;
6689;SDS011;3382;51.576;8.076;2023-03-02T14:53:28;4.90;;;3.53;;
6689;SDS011;3382;51.576;8.076;2023-03-02T14:55:57;6.20;;;3.87;;
6689;SDS011;3382;51.576;8.076;2023-03-02T14:58:26;3.80;;;3.33;;
6689;SDS011;3382;51.576;8.076;2023-03-02T15:00:58;5.03;;;4.00;;
6689;SDS011;3382;51.576;8.076;2023-03-02T15:03:25;9.17;;;4.07;;
6689;SDS011;3382;51.576;8.076;2023-03-02T15:05:51;4.57;;;3.80;;
6689;SDS011;3382;51.576;8.076;2023-03-02T15:08:18;4.20;;;3.63;;
6689;SDS011;3382;51.576;8.076;2023-03-02T15:10:45;5.13;;;3.60;;
6689;SDS011;3382;51.576;8.076;2023-03-02T15:13:11;5.93;;;4.23;;
6689;SDS011;3382;51.576;8.076;2023-03-02T15:15:38;4.80;;;4.23;;
6689;SDS011;3382;51.576;8.076;2023-03-02T15:18:04;4.43;;;3.87;;
6689;SDS011;3382;51.576;8.076;2023-03-02T15:20:30;7.20;;;3.83;;
6689;SDS011;3382;51.576;8.076;2023-03-02T15:22:56;5.83;;;3.90;;
6689;SDS011;3382;51.576;8.076;2023-03-02T15:25:21;4.37;;;3.70;;
6689;SDS011;3382;51.576;8.076;2023-03-02T15:27:50;4.93;;;3.87;;
6689;SDS011;3382;51.576;8.076;2023-03-02T15:30:17;6.63;;;4.00;;
6689;SDS011;3382;51.576;8.076;2023-03-02T15:32:43;7.23;;;3.93;;
6689;SDS011;3382;51.576;8.076;2023-03-02T15:35:08;5.03;;;4.43;;
6689;SDS011;3382;51.576;8.076;2023-03-02T15:37:36;7.57;;;5.00;;
6689;SDS011;3382;51.576;8.076;2023-03-02T15:40:02;7.93;;;5.87;;
6689;SDS011;3382;51.576;8.076;2023-03-02T15:42:28;8.87;;;6.47;;
6689;SDS011;3382;51.576;8.076;2023-03-02T15:44:54;14.40;;;7.07;;
6689;SDS011;3382;51.576;8.076;2023-03-02T15:47:20;8.20;;;6.07;;
6689;SDS011;3382;51.576;8.076;2023-03-02T15:49:46;11.60;;;7.10;;
6689;SDS011;3382;51.576;8.076;2023-03-02T15:52:11;10.63;;;6.70;;
6689;SDS011;3382;51.576;8.076;2023-03-02T15:54:37;11.87;;;7.60;;
6689;SDS011;3382;51.576;8.076;2023-03-02T15:57:04;9.60;;;6.43;;
6689;SDS011;3382;51.576;8.076;2023-03-02T15:59:30;9.57;;;6.67;;
6689;SDS011;3382;51.576;8.076;2023-03-02T16:01:56;9.33;;;7.17;;
6689;SDS011;3382;51.576;8.076;2023-03-02T16:04:23;14.13;;;6.40;;
6689;SDS011;3382;51.576;8.076;2023-03-02T16:06:50;11.37;;;8.23;;
6689;SDS011;3382;51.576;8.076;2023-03-02T16:09:16;10.63;;;8.77;;
6689;SDS011;3382;51.576;8.076;2023-03-02T16:11:41;12.40;;;8.50;;
6689;SDS011;3382;51.576;8.076;2023-03-02T16:14:07;13.53;;;8.97;;
6689;SDS011;3382;51.576;8.076;2023-03-02T16:16:33;11.67;;;8.50;;
6689;SDS011;3382;51.576;8.076;2023-03-02T16:18:59;13.67;;;8.63;;
6689;SDS011;3382;51.576;8.076;2023-03-02T16:21:25;13.30;;;8.77;;
6689;SDS011;3382;51.576;8.076;2023-03-02T16:23:52;11.93;;;8.13;;
6689;SDS011;3382;51.576;8.076;2023-03-02T16:26:19;13.87;;;8.20;;
6689;SDS011;3382;51.576;8.076;2023-03-02T16:28:45;13.20;;;8.40;;
6689;SDS011;3382;51.576;8.076;2023-03-02T16:31:15;11.77;;;8.80;;
6689;SDS011;3382;51.576;8.076;2023-03-02T16:33:43;22.10;;;9.40;;
6689;SDS011;3382;51.576;8.076;2023-03-02T16:36:10;14.50;;;9.47;;
6689;SDS011;3382;51.576;8.076;2023-03-02T16:38:36;15.50;;;11.20;;
6689;SDS011;3382;51.576;8.076;2023-03-02T16:41:03;16.03;;;12.03;;
6689;SDS011;3382;51.576;8.076;2023-03-02T16:43:30;17.83;;;12.77;;
6689;SDS011;3382;51.576;8.076;2023-03-02T16:45:56;21.60;;;14.53;;
6689;SDS011;3382;51.576;8.076;2023-03-02T16:48:23;21.73;;;14.43;;